• Join FlightAware (Why Join?)
  • Login
  • US Flag 
11:40AM EDT


 

Airport Tracker/Info


-or-


 

Live Flight TrackerFlight Track Log ✈ VET90 ✈ 10-Nov-2013 ✈ KGMU - KMYR

Flight Track Log - Related Links

Times and Time Zones

All times are in EST time to prevent confusion due to time zone crossing. See the VET90 flight status page for this flight to view local times or setup timezone preferences in your user account.

Time Position Orientation Groundspeed Altitude Reporting Facility
EST Latitude Longitude Course Direction KTS MPH feet Rate Location/Type
06:59AM 34.7611 -82.3244 131° Southeast 153 176 3,600  Level Atlanta Center
07:00AM 34.7169 -82.2978 154° Southeast 173 199 4,500 1,020 Climbing Atlanta Center
07:01AM 34.6769 -82.2758 156° South 187 215 5,700 1,200 Climbing Atlanta Center
07:02AM 34.6286 -82.2464 153° Southeast 187 215 6,900 1,020 Climbing Atlanta Center
07:03AM 34.5803 -82.2222 158° South 187 215 7,800 1,140 Climbing Atlanta Center
07:04AM 34.7356 -82.0040 131° Southeast  Level Estimated
07:04AM 34.5339 -82.1981 157° South 193 222 9,200  Level Atlanta Center
07:06AM 34.4767 -82.1294 135° Southeast 190 219 11,100 1,140 Climbing Jacksonville Center
07:07AM 34.4472 -82.0742 123° Southeast 190 219 12,300 1,080 Climbing Jacksonville Center
07:08AM 34.4175 -82.0217 124° Southeast 190 219 13,300 1,020 Climbing Jacksonville Center
07:09AM 34.3881 -81.9642 122° Southeast 197 227 14,400 1,140 Climbing Jacksonville Center
07:10AM 34.3564 -81.9092 125° Southeast 197 227 15,600 900 Climbing Jacksonville Center
07:11AM 34.3225 -81.8542 127° Southeast 197 227 16,300 720 Climbing Jacksonville Center
07:12AM 34.2886 -81.7967 125° Southeast 197 227 17,100 780 Climbing Jacksonville Center
07:13AM 34.2567 -81.7394 124° Southeast 202 232 17,900 600 Climbing Jacksonville Center
07:14AM 34.2228 -81.6847 127° Southeast 202 232 18,400 540 Climbing Jacksonville Center
07:15AM 34.1911 -81.6247 123° Southeast 202 232 19,000 300 Climbing Jacksonville Center
07:16AM 34.1528 -81.5625 127° Southeast 215 247 19,000  Level Jacksonville Center
07:17AM 34.1125 -81.4906 124° Southeast 233 268 19,000  Level Jacksonville Center
07:18AM 34.0697 -81.4158 125° Southeast 253 291 19,000  Level Jacksonville Center
07:19AM 34.0294 -81.3464 125° Southeast 258 297 19,000  Level Jacksonville Center
07:20AM 33.9867 -81.2747 126° Southeast 263 303 19,000  Level Jacksonville Center
07:21AM 33.9461 -81.2028 124° Southeast 263 303 19,000  Level Jacksonville Center
07:22AM 33.9033 -81.1286 125° Southeast 263 303 19,000  Level Jacksonville Center
07:23AM 33.8606 -81.0544 125° Southeast 263 303 19,000  Level Jacksonville Center
07:24AM 33.8508 -80.9544 97° East 257 296 19,000  Level Jacksonville Center
07:25AM 33.8431 -80.8647 96° East 263 303 19,000  Level Jacksonville Center
07:26AM 33.8375 -80.7747 94° East 268 308 19,000  Level Jacksonville Center
07:27AM 33.8297 -80.6850 96° East 273 314 19,000  Level Jacksonville Center
07:28AM 33.8239 -80.5953 94° East 273 314 19,000  Level Jacksonville Center
07:29AM 33.8181 -80.5053 94° East 273 314 19,000  Level Jacksonville Center
07:30AM 33.8103 -80.4356 98° East 273 314 19,000  Level Jacksonville Center
07:31AM 33.8022 -80.3383 96° East 273 314 19,000  Level Jacksonville Center
07:32AM 33.7961 -80.2461 95° East 273 314 19,000  Level Jacksonville Center
07:33AM 33.7881 -80.1589 96° East 273 314 19,000  Level Jacksonville Center
07:34AM 33.7819 -80.0689 95° East 273 314 19,000 -600 Level Jacksonville Center
07:35AM 33.7733 -79.9744 96° East 273 314 17,800 -1,140 Descending Jacksonville Center
07:36AM 33.7647 -79.8722 96° East 286 329 16,800 -1,260 Descending Jacksonville Center
07:37AM 33.7561 -79.7725 96° East 293 337 15,300 -1,680 Descending Jacksonville Center
07:38AM 33.7472 -79.6706 96° East 293 337 13,500 -1,860 Descending Jacksonville Center
07:39AM 33.7469 -79.5731 90° East 293 337 11,600 -1,800 Descending Jacksonville Center
07:40AM 33.7525 -79.4756 86° East 293 337 9,900 -1,740 Descending Jacksonville Center
07:41AM 33.7603 -79.3803 84° East 275 316 8,200 -1,680 Descending Jacksonville Center
07:42AM 33.7706 -79.2975 81° East 262 302 6,600 -1,680 Descending Jacksonville Center
07:43AM 33.7744 -79.2147 87° East 249 287 4,900 -1,560 Descending Jacksonville Center
07:44AM 33.7658 -79.1353 97° East 244 281 3,500 -1,440 Descending Jacksonville Center
07:46AM 33.7220 -79.0298 90° East  Level Estimated
07:53AM 33.6797 -78.9283 101° East  Level Estimated
07:54AM 33.6797 -78.9283 101° East  Level Estimated